sensor_id;sensor_type;location;lat;lon;timestamp;temperature;humidity
26254;DHT22;53339;51.378;0.094;2023-04-01T00:01:29;10.00;91.60
26254;DHT22;53339;51.378;0.094;2023-04-01T00:04:01;10.00;91.60
26254;DHT22;53339;51.378;0.094;2023-04-01T00:06:29;10.00;91.60
26254;DHT22;53339;51.378;0.094;2023-04-01T00:08:59;10.10;91.60
26254;DHT22;53339;51.378;0.094;2023-04-01T00:11:27;10.10;91.60
26254;DHT22;53339;51.378;0.094;2023-04-01T00:13:55;10.10;91.60
26254;DHT22;53339;51.378;0.094;2023-04-01T00:16:24;10.10;91.60
26254;DHT22;53339;51.378;0.094;2023-04-01T00:18:52;10.10;91.60
26254;DHT22;53339;51.378;0.094;2023-04-01T00:21:20;10.00;91.60
26254;DHT22;53339;51.378;0.094;2023-04-01T00:23:52;10.00;91.60
26254;DHT22;53339;51.378;0.094;2023-04-01T00:26:22;10.00;91.60
26254;DHT22;53339;51.378;0.094;2023-04-01T00:28:50;10.00;91.60
26254;DHT22;53339;51.378;0.094;2023-04-01T00:31:22;10.00;91.60
26254;DHT22;53339;51.378;0.094;2023-04-01T00:33:52;10.00;91.60
26254;DHT22;53339;51.378;0.094;2023-04-01T00:36:21;10.00;91.60
26254;DHT22;53339;51.378;0.094;2023-04-01T00:38:49;10.00;91.60
26254;DHT22;53339;51.378;0.094;2023-04-01T00:41:21;10.00;91.60
26254;DHT22;53339;51.378;0.094;2023-04-01T00:44:11;10.00;91.60
26254;DHT22;53339;51.378;0.094;2023-04-01T00:46:41;10.00;91.60
26254;DHT22;53339;51.378;0.094;2023-04-01T00:49:10;9.90;91.60
26254;DHT22;53339;51.378;0.094;2023-04-01T00:51:42;10.00;91.70
26254;DHT22;53339;51.378;0.094;2023-04-01T00:54:15;9.90;91.70
26254;DHT22;53339;51.378;0.094;2023-04-01T00:57:12;10.00;91.70
26254;DHT22;53339;51.378;0.094;2023-04-01T00:59:49;9.90;91.70
26254;DHT22;53339;51.378;0.094;2023-04-01T01:02:20;10.00;91.70
26254;DHT22;53339;51.378;0.094;2023-04-01T01:04:49;9.90;91.70
26254;DHT22;53339;51.378;0.094;2023-04-01T01:07:27;9.90;91.60
26254;DHT22;53339;51.378;0.094;2023-04-01T01:12:51;9.90;91.60
26254;DHT22;53339;51.378;0.094;2023-04-01T01:15:39;9.90;91.70
26254;DHT22;53339;51.378;0.094;2023-04-01T01:18:37;9.90;91.60
26254;DHT22;53339;51.378;0.094;2023-04-01T01:21:30;9.90;91.60
26254;DHT22;53339;51.378;0.094;2023-04-01T01:27:12;9.80;91.50
26254;DHT22;53339;51.378;0.094;2023-04-01T01:30:14;9.80;91.50
26254;DHT22;53339;51.378;0.094;2023-04-01T01:33:20;9.70;91.50
26254;DHT22;53339;51.378;0.094;2023-04-01T01:35:56;9.70;91.50
26254;DHT22;53339;51.378;0.094;2023-04-01T01:38:29;9.70;91.40
26254;DHT22;53339;51.378;0.094;2023-04-01T01:41:02;9.70;91.40
26254;DHT22;53339;51.378;0.094;2023-04-01T01:43:43;9.70;91.40
26254;DHT22;53339;51.378;0.094;2023-04-01T01:46:19;9.70;91.40
26254;DHT22;53339;51.378;0.094;2023-04-01T01:48:50;9.60;91.20
26254;DHT22;53339;51.378;0.094;2023-04-01T01:51:20;9.40;91.00
26254;DHT22;53339;51.378;0.094;2023-04-01T01:53:55;9.30;90.90
26254;DHT22;53339;51.378;0.094;2023-04-01T01:56:27;9.20;90.90
26254;DHT22;53339;51.378;0.094;2023-04-01T01:59:04;9.20;91.00
26254;DHT22;53339;51.378;0.094;2023-04-01T02:01:39;9.20;91.20
26254;DHT22;53339;51.378;0.094;2023-04-01T02:04:13;9.20;91.20
26254;DHT22;53339;51.378;0.094;2023-04-01T02:07:01;9.20;91.20
26254;DHT22;53339;51.378;0.094;2023-04-01T02:09:34;9.10;91.10
26254;DHT22;53339;51.378;0.094;2023-04-01T02:12:06;9.10;91.10
26254;DHT22;53339;51.378;0.094;2023-04-01T02:15:07;9.10;91.10
26254;DHT22;53339;51.378;0.094;2023-04-01T02:17:42;9.10;91.10
26254;DHT22;53339;51.378;0.094;2023-04-01T02:20:15;9.00;91.00
26254;DHT22;53339;51.378;0.094;2023-04-01T02:22:49;9.00;91.00
26254;DHT22;53339;51.378;0.094;2023-04-01T02:25:34;9.00;91.10
26254;DHT22;53339;51.378;0.094;2023-04-01T02:28:09;8.90;91.00
26254;DHT22;53339;51.378;0.094;2023-04-01T02:30:41;8.90;91.00
26254;DHT22;53339;51.378;0.094;2023-04-01T02:33:11;8.90;91.10
26254;DHT22;53339;51.378;0.094;2023-04-01T02:35:40;8.90;91.10
26254;DHT22;53339;51.378;0.094;2023-04-01T02:38:09;9.00;91.20
26254;DHT22;53339;51.378;0.094;2023-04-01T02:40:47;9.00;91.20
26254;DHT22;53339;51.378;0.094;2023-04-01T02:43:17;9.00;91.10
26254;DHT22;53339;51.378;0.094;2023-04-01T02:45:46;9.00;91.10
26254;DHT22;53339;51.378;0.094;2023-04-01T02:48:16;8.90;91.10
26254;DHT22;53339;51.378;0.094;2023-04-01T02:50:48;8.90;91.10
26254;DHT22;53339;51.378;0.094;2023-04-01T02:53:16;8.90;91.10
26254;DHT22;53339;51.378;0.094;2023-04-01T02:55:44;8.90;91.10
26254;DHT22;53339;51.378;0.094;2023-04-01T02:58:13;8.90;91.20
26254;DHT22;53339;51.378;0.094;2023-04-01T03:00:42;8.90;91.20
26254;DHT22;53339;51.378;0.094;2023-04-01T03:03:12;8.90;91.20
26254;DHT22;53339;51.378;0.094;2023-04-01T03:05:43;8.90;91.10
26254;DHT22;53339;51.378;0.094;2023-04-01T03:08:14;9.00;91.10
26254;DHT22;53339;51.378;0.094;2023-04-01T03:10:51;9.00;91.10
26254;DHT22;53339;51.378;0.094;2023-04-01T03:13:25;9.00;91.10
26254;DHT22;53339;51.378;0.094;2023-04-01T03:15:56;9.00;91.10
26254;DHT22;53339;51.378;0.094;2023-04-01T03:18:25;9.00;91.10
26254;DHT22;53339;51.378;0.094;2023-04-01T03:20:57;9.00;91.10
26254;DHT22;53339;51.378;0.094;2023-04-01T03:23:26;9.00;91.10
26254;DHT22;53339;51.378;0.094;2023-04-01T03:26:04;8.90;91.10
26254;DHT22;53339;51.378;0.094;2023-04-01T03:28:36;9.00;91.10
26254;DHT22;53339;51.378;0.094;2023-04-01T03:31:04;8.90;91.10
26254;DHT22;53339;51.378;0.094;2023-04-01T03:33:40;8.90;91.10
26254;DHT22;53339;51.378;0.094;2023-04-01T03:36:09;8.90;91.10
26254;DHT22;53339;51.378;0.094;2023-04-01T03:38:41;8.90;91.10
26254;DHT22;53339;51.378;0.094;2023-04-01T03:41:14;8.90;91.20
26254;DHT22;53339;51.378;0.094;2023-04-01T03:43:45;8.90;91.20
26254;DHT22;53339;51.378;0.094;2023-04-01T03:46:19;8.90;91.20
26254;DHT22;53339;51.378;0.094;2023-04-01T03:48:50;8.90;91.20
26254;DHT22;53339;51.378;0.094;2023-04-01T03:51:21;8.90;91.20
26254;DHT22;53339;51.378;0.094;2023-04-01T03:53:52;8.90;91.20
26254;DHT22;53339;51.378;0.094;2023-04-01T03:56:21;8.90;91.10
26254;DHT22;53339;51.378;0.094;2023-04-01T03:58:50;8.80;91.10
26254;DHT22;53339;51.378;0.094;2023-04-01T04:01:20;8.80;91.10
26254;DHT22;53339;51.378;0.094;2023-04-01T04:03:53;8.80;91.10
26254;DHT22;53339;51.378;0.094;2023-04-01T04:06:24;8.80;91.10
26254;DHT22;53339;51.378;0.094;2023-04-01T04:08:56;8.80;91.00
26254;DHT22;53339;51.378;0.094;2023-04-01T04:11:27;8.70;91.00
26254;DHT22;53339;51.378;0.094;2023-04-01T04:13:58;8.70;91.10
26254;DHT22;53339;51.378;0.094;2023-04-01T04:16:28;8.70;91.10
26254;DHT22;53339;51.378;0.094;2023-04-01T04:19:02;8.70;91.00
26254;DHT22;53339;51.378;0.094;2023-04-01T04:21:31;8.70;91.00
26254;DHT22;53339;51.378;0.094;2023-04-01T04:24:01;8.70;91.10
26254;DHT22;53339;51.378;0.094;2023-04-01T04:26:50;8.70;91.10
26254;DHT22;53339;51.378;0.094;2023-04-01T04:29:23;8.60;90.90
26254;DHT22;53339;51.378;0.094;2023-04-01T04:31:59;8.60;91.00
26254;DHT22;53339;51.378;0.094;2023-04-01T04:34:27;8.70;91.00
26254;DHT22;53339;51.378;0.094;2023-04-01T04:36:57;8.60;91.00
26254;DHT22;53339;51.378;0.094;2023-04-01T04:39:30;8.60;90.90
26254;DHT22;53339;51.378;0.094;2023-04-01T04:41:59;8.60;91.00
26254;DHT22;53339;51.378;0.094;2023-04-01T04:44:27;8.60;91.10
26254;DHT22;53339;51.378;0.094;2023-04-01T04:46:57;8.70;91.10
26254;DHT22;53339;51.378;0.094;2023-04-01T04:49:26;8.60;90.90
26254;DHT22;53339;51.378;0.094;2023-04-01T04:51:55;8.60;91.00
26254;DHT22;53339;51.378;0.094;2023-04-01T04:54:26;8.60;91.10
26254;DHT22;53339;51.378;0.094;2023-04-01T04:56:58;8.60;91.00
26254;DHT22;53339;51.378;0.094;2023-04-01T04:59:31;8.60;90.90
26254;DHT22;53339;51.378;0.094;2023-04-01T05:02:18;8.60;91.00
26254;DHT22;53339;51.378;0.094;2023-04-01T05:04:50;8.60;91.10
26254;DHT22;53339;51.378;0.094;2023-04-01T05:07:21;8.60;91.00
26254;DHT22;53339;51.378;0.094;2023-04-01T05:09:49;8.50;90.90
26254;DHT22;53339;51.378;0.094;2023-04-01T05:12:18;8.50;91.00
26254;DHT22;53339;51.378;0.094;2023-04-01T05:15:00;8.50;91.00
26254;DHT22;53339;51.378;0.094;2023-04-01T05:17:29;8.50;91.00
26254;DHT22;53339;51.378;0.094;2023-04-01T05:20:02;8.40;90.90
26254;DHT22;53339;51.378;0.094;2023-04-01T05:22:31;8.50;91.00
26254;DHT22;53339;51.378;0.094;2023-04-01T05:25:01;8.50;91.00
26254;DHT22;53339;51.378;0.094;2023-04-01T05:27:39;8.60;91.00
26254;DHT22;53339;51.378;0.094;2023-04-01T05:30:08;8.50;90.90
26254;DHT22;53339;51.378;0.094;2023-04-01T05:32:56;8.50;91.00
26254;DHT22;53339;51.378;0.094;2023-04-01T05:35:26;8.60;91.00
26254;DHT22;53339;51.378;0.094;2023-04-01T05:37:55;8.50;90.80
26254;DHT22;53339;51.378;0.094;2023-04-01T05:40:31;8.50;90.80
26254;DHT22;53339;51.378;0.094;2023-04-01T05:42:59;8.50;90.90
26254;DHT22;53339;51.378;0.094;2023-04-01T05:45:29;8.60;90.90
26254;DHT22;53339;51.378;0.094;2023-04-01T05:48:17;8.50;90.80
26254;DHT22;53339;51.378;0.094;2023-04-01T05:50:46;8.50;90.70
26254;DHT22;53339;51.378;0.094;2023-04-01T05:53:16;8.50;90.80
26254;DHT22;53339;51.378;0.094;2023-04-01T05:55:44;8.50;90.80
26254;DHT22;53339;51.378;0.094;2023-04-01T05:58:14;8.50;90.70
26254;DHT22;53339;51.378;0.094;2023-04-01T06:00:46;8.50;90.70
26254;DHT22;53339;51.378;0.094;2023-04-01T06:03:16;8.50;90.80
26254;DHT22;53339;51.378;0.094;2023-04-01T06:05:47;8.50;90.80
26254;DHT22;53339;51.378;0.094;2023-04-01T06:08:17;8.50;90.70
26254;DHT22;53339;51.378;0.094;2023-04-01T06:11:22;8.40;90.60
26254;DHT22;53339;51.378;0.094;2023-04-01T06:16:54;8.50;90.90
26254;DHT22;53339;51.378;0.094;2023-04-01T06:28:47;8.60;90.90
26254;DHT22;53339;51.378;0.094;2023-04-01T06:37:12;8.70;90.90
26254;DHT22;53339;51.378;0.094;2023-04-01T06:39:54;8.70;90.70
26254;DHT22;53339;51.378;0.094;2023-04-01T06:57:55;8.60;90.40
26254;DHT22;53339;51.378;0.094;2023-04-01T07:00:33;8.60;90.40
26254;DHT22;53339;51.378;0.094;2023-04-01T07:03:16;8.60;90.40
26254;DHT22;53339;51.378;0.094;2023-04-01T07:05:46;8.60;90.30
26254;DHT22;53339;51.378;0.094;2023-04-01T07:08:21;8.50;90.10
26254;DHT22;53339;51.378;0.094;2023-04-01T07:11:04;8.50;90.10
26254;DHT22;53339;51.378;0.094;2023-04-01T07:13:55;8.50;90.30
26254;DHT22;53339;51.378;0.094;2023-04-01T07:16:34;8.60;90.40
26254;DHT22;53339;51.378;0.094;2023-04-01T07:19:18;8.60;90.30
26254;DHT22;53339;51.378;0.094;2023-04-01T07:25:38;8.70;90.50
26254;DHT22;53339;51.378;0.094;2023-04-01T07:28:31;8.70;90.30
26254;DHT22;53339;51.378;0.094;2023-04-01T07:31:49;8.70;90.30
26254;DHT22;53339;51.378;0.094;2023-04-01T07:37:03;8.90;90.30
26254;DHT22;53339;51.378;0.094;2023-04-01T07:39:56;8.80;90.10
26254;DHT22;53339;51.378;0.094;2023-04-01T07:46:02;8.90;90.10
26254;DHT22;53339;51.378;0.094;2023-04-01T07:49:25;8.80;89.70
26254;DHT22;53339;51.378;0.094;2023-04-01T07:52:55;8.70;89.70
26254;DHT22;53339;51.378;0.094;2023-04-01T07:55:10;8.70;89.80
26254;DHT22;53339;51.378;0.094;2023-04-01T08:06:31;8.80;90.00
26254;DHT22;53339;51.378;0.094;2023-04-01T08:09:19;8.70;89.60
26254;DHT22;53339;51.378;0.094;2023-04-01T08:15:31;8.70;89.90
26254;DHT22;53339;51.378;0.094;2023-04-01T08:18:38;8.70;90.00
26254;DHT22;53339;51.378;0.094;2023-04-01T08:23:56;8.80;89.90
26254;DHT22;53339;51.378;0.094;2023-04-01T08:26:41;8.80;89.80
26254;DHT22;53339;51.378;0.094;2023-04-01T08:29:16;8.70;89.70
26254;DHT22;53339;51.378;0.094;2023-04-01T08:34:25;8.70;89.90
26254;DHT22;53339;51.378;0.094;2023-04-01T08:37:01;8.90;90.10
26254;DHT22;53339;51.378;0.094;2023-04-01T08:39:45;9.10;90.20
26254;DHT22;53339;51.378;0.094;2023-04-01T08:42:24;9.20;90.20
26254;DHT22;53339;51.378;0.094;2023-04-01T08:56:42;9.20;89.30
26254;DHT22;53339;51.378;0.094;2023-04-01T08:59:32;9.20;89.40
26254;DHT22;53339;51.378;0.094;2023-04-01T09:03:02;9.20;89.50
26254;DHT22;53339;51.378;0.094;2023-04-01T09:05:58;9.30;89.40
26254;DHT22;53339;51.378;0.094;2023-04-01T09:11:59;9.30;89.40
26254;DHT22;53339;51.378;0.094;2023-04-01T09:15:13;9.40;89.20
26254;DHT22;53339;51.378;0.094;2023-04-01T09:31:31;9.30;88.30
26254;DHT22;53339;51.378;0.094;2023-04-01T09:37:34;9.40;88.60
26254;DHT22;53339;51.378;0.094;2023-04-01T10:07:17;9.70;87.80
26254;DHT22;53339;51.378;0.094;2023-04-01T10:24:55;10.10;88.20
26254;DHT22;53339;51.378;0.094;2023-04-01T10:31:18;10.10;87.90
26254;DHT22;53339;51.378;0.094;2023-04-01T10:36:54;10.10;87.00
26254;DHT22;53339;51.378;0.094;2023-04-01T10:55:35;10.40;87.60
26254;DHT22;53339;51.378;0.094;2023-04-01T11:08:15;10.20;86.20
26254;DHT22;53339;51.378;0.094;2023-04-01T11:11:17;10.20;86.10
26254;DHT22;53339;51.378;0.094;2023-04-01T11:34:01;10.30;86.30
26254;DHT22;53339;51.378;0.094;2023-04-01T11:37:03;10.30;86.30
26254;DHT22;53339;51.378;0.094;2023-04-01T11:42:44;10.30;86.00
26254;DHT22;53339;51.378;0.094;2023-04-01T11:46:12;10.20;86.10
26254;DHT22;53339;51.378;0.094;2023-04-01T11:49:02;10.10;86.20
26254;DHT22;53339;51.378;0.094;2023-04-01T11:51:47;10.20;86.20
26254;DHT22;53339;51.378;0.094;2023-04-01T11:54:39;10.30;86.30
26254;DHT22;53339;51.378;0.094;2023-04-01T12:03:21;10.60;85.10
26254;DHT22;53339;51.378;0.094;2023-04-01T12:06:08;10.40;84.80
26254;DHT22;53339;51.378;0.094;2023-04-01T12:14:41;10.40;85.50
26254;DHT22;53339;51.378;0.094;2023-04-01T12:28:37;11.00;84.40
26254;DHT22;53339;51.378;0.094;2023-04-01T12:34:26;10.90;84.50
26254;DHT22;53339;51.378;0.094;2023-04-01T12:37:21;10.80;84.40
26254;DHT22;53339;51.378;0.094;2023-04-01T12:43:07;10.70;84.60
26254;DHT22;53339;51.378;0.094;2023-04-01T13:16:42;11.10;82.60
26254;DHT22;53339;51.378;0.094;2023-04-01T13:19:50;11.20;82.30
26254;DHT22;53339;51.378;0.094;2023-04-01T13:25:44;11.70;80.90
26254;DHT22;53339;51.378;0.094;2023-04-01T13:35:04;12.10;79.70
26254;DHT22;53339;51.378;0.094;2023-04-01T13:41:09;12.30;80.00
26254;DHT22;53339;51.378;0.094;2023-04-01T13:43:52;12.30;79.20
26254;DHT22;53339;51.378;0.094;2023-04-01T13:55:30;12.10;79.70
26254;DHT22;53339;51.378;0.094;2023-04-01T14:01:23;12.40;79.60
26254;DHT22;53339;51.378;0.094;2023-04-01T14:04:03;12.50;79.50
26254;DHT22;53339;51.378;0.094;2023-04-01T14:12:31;12.60;78.30
26254;DHT22;53339;51.378;0.094;2023-04-01T14:15:41;12.40;78.40
26254;DHT22;53339;51.378;0.094;2023-04-01T14:18:20;12.30;79.10
26254;DHT22;53339;51.378;0.094;2023-04-01T14:27:12;12.20;77.00
26254;DHT22;53339;51.378;0.094;2023-04-01T14:33:20;12.20;75.90
26254;DHT22;53339;51.378;0.094;2023-04-01T14:50:27;12.10;77.80
26254;DHT22;53339;51.378;0.094;2023-04-01T14:58:13;12.20;78.60
26254;DHT22;53339;51.378;0.094;2023-04-01T15:03:36;12.10;78.30
26254;DHT22;53339;51.378;0.094;2023-04-01T15:09:17;11.80;78.80
26254;DHT22;53339;51.378;0.094;2023-04-01T15:12:12;11.70;79.40
26254;DHT22;53339;51.378;0.094;2023-04-01T15:15:14;11.60;79.40
26254;DHT22;53339;51.378;0.094;2023-04-01T15:18:09;11.60;80.10
26254;DHT22;53339;51.378;0.094;2023-04-01T15:26:29;11.40;80.90
26254;DHT22;53339;51.378;0.094;2023-04-01T15:32:22;11.30;81.00
26254;DHT22;53339;51.378;0.094;2023-04-01T15:38:11;11.20;80.90
26254;DHT22;53339;51.378;0.094;2023-04-01T15:43:44;11.00;80.00
26254;DHT22;53339;51.378;0.094;2023-04-01T15:46:44;10.80;79.30
26254;DHT22;53339;51.378;0.094;2023-04-01T15:49:42;10.60;79.20
26254;DHT22;53339;51.378;0.094;2023-04-01T15:52:42;10.40;80.30
26254;DHT22;53339;51.378;0.094;2023-04-01T15:55:20;10.30;80.30
26254;DHT22;53339;51.378;0.094;2023-04-01T15:58:19;10.10;80.30
26254;DHT22;53339;51.378;0.094;2023-04-01T16:04:32;10.00;80.60
26254;DHT22;53339;51.378;0.094;2023-04-01T16:07:21;9.90;80.20
26254;DHT22;53339;51.378;0.094;2023-04-01T16:16:10;10.00;80.80
26254;DHT22;53339;51.378;0.094;2023-04-01T16:30:02;9.80;80.70
26254;DHT22;53339;51.378;0.094;2023-04-01T16:41:13;9.70;81.50
26254;DHT22;53339;51.378;0.094;2023-04-01T16:43:55;9.70;81.60
26254;DHT22;53339;51.378;0.094;2023-04-01T16:49:28;9.60;81.20
26254;DHT22;53339;51.378;0.094;2023-04-01T16:54:58;9.60;81.70
26254;DHT22;53339;51.378;0.094;2023-04-01T17:00:39;9.40;81.50
26254;DHT22;53339;51.378;0.094;2023-04-01T17:03:25;9.50;82.20
26254;DHT22;53339;51.378;0.094;2023-04-01T17:14:54;9.40;82.10
26254;DHT22;53339;51.378;0.094;2023-04-01T17:17:56;9.40;81.30
26254;DHT22;53339;51.378;0.094;2023-04-01T17:20:46;9.30;81.20
26254;DHT22;53339;51.378;0.094;2023-04-01T17:23:38;9.40;81.20
26254;DHT22;53339;51.378;0.094;2023-04-01T17:29:14;9.30;81.00
26254;DHT22;53339;51.378;0.094;2023-04-01T17:32:02;9.30;81.40
26254;DHT22;53339;51.378;0.094;2023-04-01T17:46:38;9.40;80.70
26254;DHT22;53339;51.378;0.094;2023-04-01T17:49:33;9.30;80.20
26254;DHT22;53339;51.378;0.094;2023-04-01T17:52:39;9.30;80.80
26254;DHT22;53339;51.378;0.094;2023-04-01T17:55:39;9.30;81.00
26254;DHT22;53339;51.378;0.094;2023-04-01T17:58:29;9.30;80.60
26254;DHT22;53339;51.378;0.094;2023-04-01T18:01:21;9.30;80.90
26254;DHT22;53339;51.378;0.094;2023-04-01T18:04:08;9.40;81.20
26254;DHT22;53339;51.378;0.094;2023-04-01T18:09:37;9.30;80.50
26254;DHT22;53339;51.378;0.094;2023-04-01T18:26:34;9.20;81.50
26254;DHT22;53339;51.378;0.094;2023-04-01T18:32:26;9.10;81.70
26254;DHT22;53339;51.378;0.094;2023-04-01T18:35:03;9.20;81.80
26254;DHT22;53339;51.378;0.094;2023-04-01T18:37:51;9.20;81.30
26254;DHT22;53339;51.378;0.094;2023-04-01T18:40:37;9.20;81.10
26254;DHT22;53339;51.378;0.094;2023-04-01T18:43:31;9.20;81.40
26254;DHT22;53339;51.378;0.094;2023-04-01T18:52:36;9.20;81.40
26254;DHT22;53339;51.378;0.094;2023-04-01T18:55:35;9.20;81.80
26254;DHT22;53339;51.378;0.094;2023-04-01T19:07:44;9.10;82.50
26254;DHT22;53339;51.378;0.094;2023-04-01T19:16:35;9.00;83.30
26254;DHT22;53339;51.378;0.094;2023-04-01T19:22:11;9.00;83.70
26254;DHT22;53339;51.378;0.094;2023-04-01T19:27:37;8.80;84.30
26254;DHT22;53339;51.378;0.094;2023-04-01T19:40:55;8.40;85.40
26254;DHT22;53339;51.378;0.094;2023-04-01T19:46:36;8.40;85.90
26254;DHT22;53339;51.378;0.094;2023-04-01T19:49:12;8.40;85.80
26254;DHT22;53339;51.378;0.094;2023-04-01T19:52:18;8.20;86.00
26254;DHT22;53339;51.378;0.094;2023-04-01T19:57:40;8.20;86.40
26254;DHT22;53339;51.378;0.094;2023-04-01T20:00:34;8.20;86.30
26254;DHT22;53339;51.378;0.094;2023-04-01T20:11:27;8.00;86.70
26254;DHT22;53339;51.378;0.094;2023-04-01T20:14:27;8.10;87.00
26254;DHT22;53339;51.378;0.094;2023-04-01T20:19:55;8.00;86.60
26254;DHT22;53339;51.378;0.094;2023-04-01T20:25:30;8.10;86.90
26254;DHT22;53339;51.378;0.094;2023-04-01T20:33:26;8.10;86.80
26254;DHT22;53339;51.378;0.094;2023-04-01T20:36:20;8.10;86.80
26254;DHT22;53339;51.378;0.094;2023-04-01T20:39:04;8.10;86.50
26254;DHT22;53339;51.378;0.094;2023-04-01T20:44:43;8.10;86.70
26254;DHT22;53339;51.378;0.094;2023-04-01T20:50:28;8.00;86.30
26254;DHT22;53339;51.378;0.094;2023-04-01T21:12:23;8.00;86.20
26254;DHT22;53339;51.378;0.094;2023-04-01T21:24:07;7.90;86.20
26254;DHT22;53339;51.378;0.094;2023-04-01T21:29:31;8.10;86.00
26254;DHT22;53339;51.378;0.094;2023-04-01T21:43:47;8.10;85.40
26254;DHT22;53339;51.378;0.094;2023-04-01T21:46:18;8.10;85.20
26254;DHT22;53339;51.378;0.094;2023-04-01T21:54:50;8.10;85.20
26254;DHT22;53339;51.378;0.094;2023-04-01T22:00:32;8.10;85.40
26254;DHT22;53339;51.378;0.094;2023-04-01T22:06:38;8.20;85.30
26254;DHT22;53339;51.378;0.094;2023-04-01T22:12:15;8.20;85.30
26254;DHT22;53339;51.378;0.094;2023-04-01T22:15:04;8.20;85.20
26254;DHT22;53339;51.378;0.094;2023-04-01T22:20:53;8.20;85.20
26254;DHT22;53339;51.378;0.094;2023-04-01T22:26:53;8.20;85.00
26254;DHT22;53339;51.378;0.094;2023-04-01T22:29:38;8.20;85.10
26254;DHT22;53339;51.378;0.094;2023-04-01T22:32:23;8.20;85.00
26254;DHT22;53339;51.378;0.094;2023-04-01T22:36:17;8.20;84.90
26254;DHT22;53339;51.378;0.094;2023-04-01T22:38:43;8.20;84.90
26254;DHT22;53339;51.378;0.094;2023-04-01T22:42:12;8.20;85.20
26254;DHT22;53339;51.378;0.094;2023-04-01T22:50:16;8.20;85.10
26254;DHT22;53339;51.378;0.094;2023-04-01T22:53:14;8.20;85.10
26254;DHT22;53339;51.378;0.094;2023-04-01T22:55:46;8.10;84.90
26254;DHT22;53339;51.378;0.094;2023-04-01T22:58:42;8.10;85.00
26254;DHT22;53339;51.378;0.094;2023-04-01T23:01:21;8.10;85.10
26254;DHT22;53339;51.378;0.094;2023-04-01T23:04:04;8.10;85.10
26254;DHT22;53339;51.378;0.094;2023-04-01T23:06:44;8.10;84.70
26254;DHT22;53339;51.378;0.094;2023-04-01T23:09:21;8.10;84.90
26254;DHT22;53339;51.378;0.094;2023-04-01T23:11:57;8.10;85.00
26254;DHT22;53339;51.378;0.094;2023-04-01T23:14:35;8.10;85.00
26254;DHT22;53339;51.378;0.094;2023-04-01T23:17:49;8.00;84.80
26254;DHT22;53339;51.378;0.094;2023-04-01T23:26:39;8.00;85.00
26254;DHT22;53339;51.378;0.094;2023-04-01T23:29:15;7.90;85.10
26254;DHT22;53339;51.378;0.094;2023-04-01T23:31:58;7.90;85.30
26254;DHT22;53339;51.378;0.094;2023-04-01T23:34:34;7.90;85.40
26254;DHT22;53339;51.378;0.094;2023-04-01T23:37:11;7.90;85.30
26254;DHT22;53339;51.378;0.094;2023-04-01T23:39:46;7.80;85.60
26254;DHT22;53339;51.378;0.094;2023-04-01T23:42:20;7.90;85.70
26254;DHT22;53339;51.378;0.094;2023-04-01T23:44:52;7.80;85.70
26254;DHT22;53339;51.378;0.094;2023-04-01T23:47:33;7.80;85.60
26254;DHT22;53339;51.378;0.094;2023-04-01T23:50:16;7.80;85.80
26254;DHT22;53339;51.378;0.094;2023-04-01T23:53:16;7.80;85.90
26254;DHT22;53339;51.378;0.094;2023-04-01T23:55:54;7.80;85.90
